sensor_id;sensor_type;location;lat;lon;timestamp;pressure;altitude;pressure_sealevel;temperature;humidity
22047;BME280;11187;49.412;20.956;2023-06-26T00:00:42;95143.56;;;16.61;100.00
22047;BME280;11187;49.412;20.956;2023-06-26T00:03:29;95151.34;;;16.59;100.00
22047;BME280;11187;49.412;20.956;2023-06-26T00:06:03;95151.34;;;16.59;100.00
22047;BME280;11187;49.412;20.956;2023-06-26T00:08:55;95147.16;;;16.57;100.00
22047;BME280;11187;49.412;20.956;2023-06-26T00:11:29;95146.44;;;16.53;100.00
22047;BME280;11187;49.412;20.956;2023-06-26T00:14:17;95149.97;;;16.50;100.00
22047;BME280;11187;49.412;20.956;2023-06-26T00:16:53;95145.88;;;16.46;100.00
22047;BME280;11187;49.412;20.956;2023-06-26T00:19:41;95151.16;;;16.43;100.00
22047;BME280;11187;49.412;20.956;2023-06-26T00:22:14;95146.94;;;16.41;100.00
22047;BME280;11187;49.412;20.956;2023-06-26T00:25:01;95148.81;;;16.37;100.00
22047;BME280;11187;49.412;20.956;2023-06-26T00:27:34;95146.34;;;16.34;100.00
22047;BME280;11187;49.412;20.956;2023-06-26T00:30:28;95137.81;;;16.32;100.00
22047;BME280;11187;49.412;20.956;2023-06-26T00:33:02;95136.19;;;16.29;100.00
22047;BME280;11187;49.412;20.956;2023-06-26T00:35:56;95140.59;;;16.27;100.00
22047;BME280;11187;49.412;20.956;2023-06-26T00:38:29;95136.38;;;16.25;100.00
22047;BME280;11187;49.412;20.956;2023-06-26T00:41:23;95135.59;;;16.23;100.00
22047;BME280;11187;49.412;20.956;2023-06-26T00:44:17;95134.91;;;16.19;100.00
22047;BME280;11187;49.412;20.956;2023-06-26T00:47:14;95139.34;;;16.16;100.00
22047;BME280;11187;49.412;20.956;2023-06-26T00:49:48;95130.75;;;16.15;100.00
22047;BME280;11187;49.412;20.956;2023-06-26T00:52:36;95124.88;;;16.12;100.00
22047;BME280;11187;49.412;20.956;2023-06-26T00:55:12;95132.75;;;16.08;100.00
22047;BME280;11187;49.412;20.956;2023-06-26T00:57:59;95135.44;;;16.05;100.00
22047;BME280;11187;49.412;20.956;2023-06-26T01:00:33;95138.94;;;16.04;100.00
22047;BME280;11187;49.412;20.956;2023-06-26T01:03:27;95134.78;;;16.00;100.00
22047;BME280;11187;49.412;20.956;2023-06-26T01:06:24;95132.28;;;15.99;100.00
22047;BME280;11187;49.412;20.956;2023-06-26T01:08:59;95134.84;;;15.99;100.00
22047;BME280;11187;49.412;20.956;2023-06-26T01:11:46;95137.53;;;15.96;100.00
22047;BME280;11187;49.412;20.956;2023-06-26T01:14:20;95129.88;;;15.94;100.00
22047;BME280;11187;49.412;20.956;2023-06-26T01:17:14;95129.09;;;15.92;100.00
22047;BME280;11187;49.412;20.956;2023-06-26T01:20:08;95124.03;;;15.89;100.00
22047;BME280;11187;49.412;20.956;2023-06-26T01:28:24;95125.03;;;15.85;100.00
22047;BME280;11187;49.412;20.956;2023-06-26T01:31:13;95121.72;;;15.83;100.00
22047;BME280;11187;49.412;20.956;2023-06-26T01:33:47;95126.91;;;15.81;100.00
22047;BME280;11187;49.412;20.956;2023-06-26T01:36:34;95124.38;;;15.80;100.00
22047;BME280;11187;49.412;20.956;2023-06-26T01:39:08;95118.44;;;15.78;100.00
22047;BME280;11187;49.412;20.956;2023-06-26T01:42:02;95122.81;;;15.76;100.00
22047;BME280;11187;49.412;20.956;2023-06-26T01:44:56;95110.03;;;15.73;100.00
22047;BME280;11187;49.412;20.956;2023-06-26T01:47:51;95110.97;;;15.70;100.00
22047;BME280;11187;49.412;20.956;2023-06-26T01:50:30;95113.53;;;15.72;100.00
22047;BME280;11187;49.412;20.956;2023-06-26T01:53:32;95111.84;;;15.69;100.00
22047;BME280;11187;49.412;20.956;2023-06-26T01:56:31;95103.28;;;15.69;100.00
22047;BME280;11187;49.412;20.956;2023-06-26T01:59:28;95116.19;;;15.69;100.00
22047;BME280;11187;49.412;20.956;2023-06-26T02:02:07;95112.03;;;15.64;100.00
22047;BME280;11187;49.412;20.956;2023-06-26T02:04:54;95106.13;;;15.62;100.00
22047;BME280;11187;49.412;20.956;2023-06-26T02:07:28;95111.28;;;15.62;100.00
22047;BME280;11187;49.412;20.956;2023-06-26T02:10:14;95101.97;;;15.58;100.00
22047;BME280;11187;49.412;20.956;2023-06-26T02:12:47;95105.44;;;15.57;100.00
22047;BME280;11187;49.412;20.956;2023-06-26T02:15:34;95097.81;;;15.54;100.00
22047;BME280;11187;49.412;20.956;2023-06-26T02:18:07;95104.78;;;15.52;100.00
22047;BME280;11187;49.412;20.956;2023-06-26T02:20:54;95104.03;;;15.49;100.00
22047;BME280;11187;49.412;20.956;2023-06-26T02:23:27;95107.66;;;15.44;100.00
22047;BME280;11187;49.412;20.956;2023-06-26T02:26:14;95103.38;;;15.43;100.00
22047;BME280;11187;49.412;20.956;2023-06-26T02:28:47;95108.59;;;15.42;100.00
22047;BME280;11187;49.412;20.956;2023-06-26T02:31:41;95107.81;;;15.40;100.00
22047;BME280;11187;49.412;20.956;2023-06-26T02:34:14;95106.06;;;15.40;100.00
22047;BME280;11187;49.412;20.956;2023-06-26T02:37:08;95110.31;;;15.41;100.00
22047;BME280;11187;49.412;20.956;2023-06-26T02:40:03;95104.28;;;15.42;100.00
22047;BME280;11187;49.412;20.956;2023-06-26T02:42:36;95112.03;;;15.42;100.00
22047;BME280;11187;49.412;20.956;2023-06-26T02:45:23;95109.44;;;15.42;100.00
22047;BME280;11187;49.412;20.956;2023-06-26T02:47:56;95106.91;;;15.41;100.00
22047;BME280;11187;49.412;20.956;2023-06-26T02:50:43;95106.13;;;15.39;100.00
22047;BME280;11187;49.412;20.956;2023-06-26T02:53:18;95108.75;;;15.37;100.00
22047;BME280;11187;49.412;20.956;2023-06-26T02:56:12;95107.03;;;15.38;100.00
22047;BME280;11187;49.412;20.956;2023-06-26T02:59:06;95107.81;;;15.40;100.00
22047;BME280;11187;49.412;20.956;2023-06-26T03:02:00;95106.03;;;15.42;100.00
22047;BME280;11187;49.412;20.956;2023-06-26T03:04:33;95111.06;;;15.45;100.00
22047;BME280;11187;49.412;20.956;2023-06-26T03:07:20;95111.91;;;15.45;100.00
22047;BME280;11187;49.412;20.956;2023-06-26T03:09:54;95114.53;;;15.44;100.00
22047;BME280;11187;49.412;20.956;2023-06-26T03:12:47;95108.53;;;15.43;100.00
22047;BME280;11187;49.412;20.956;2023-06-26T03:15:41;95111.28;;;15.39;100.00
22047;BME280;11187;49.412;20.956;2023-06-26T03:18:14;95109.63;;;15.38;100.00
22047;BME280;11187;49.412;20.956;2023-06-26T03:21:01;95104.50;;;15.36;100.00
22047;BME280;11187;49.412;20.956;2023-06-26T03:23:36;95105.47;;;15.34;100.00
22047;BME280;11187;49.412;20.956;2023-06-26T03:26:23;95113.31;;;15.31;100.00
22047;BME280;11187;49.412;20.956;2023-06-26T03:28:59;95112.53;;;15.29;100.00
22047;BME280;11187;49.412;20.956;2023-06-26T03:31:46;95110.91;;;15.26;100.00
22047;BME280;11187;49.412;20.956;2023-06-26T03:34:19;95115.22;;;15.25;100.00
22047;BME280;11187;49.412;20.956;2023-06-26T03:37:06;95117.88;;;15.24;100.00
22047;BME280;11187;49.412;20.956;2023-06-26T03:39:40;95117.13;;;15.20;100.00
22047;BME280;11187;49.412;20.956;2023-06-26T03:42:26;95116.28;;;15.20;100.00
22047;BME280;11187;49.412;20.956;2023-06-26T03:44:59;95118.88;;;15.20;100.00
22047;BME280;11187;49.412;20.956;2023-06-26T03:47:53;95116.28;;;15.20;100.00
22047;BME280;11187;49.412;20.956;2023-06-26T03:50:47;95113.72;;;15.20;100.00
22047;BME280;11187;49.412;20.956;2023-06-26T03:53:21;95110.22;;;15.21;100.00
22047;BME280;11187;49.412;20.956;2023-06-26T03:56:07;95112.72;;;15.24;100.00
22047;BME280;11187;49.412;20.956;2023-06-26T03:58:54;95111.78;;;15.25;100.00
22047;BME280;11187;49.412;20.956;2023-06-26T04:01:48;95116.13;;;15.24;100.00
22047;BME280;11187;49.412;20.956;2023-06-26T04:04:22;95118.56;;;15.28;100.00
22047;BME280;11187;49.412;20.956;2023-06-26T04:07:15;95114.25;;;15.28;100.00
22047;BME280;11187;49.412;20.956;2023-06-26T04:10:10;95115.13;;;15.29;100.00
22047;BME280;11187;49.412;20.956;2023-06-26T04:12:44;95115.94;;;15.29;100.00
22047;BME280;11187;49.412;20.956;2023-06-26T04:15:30;95115.81;;;15.32;100.00
22047;BME280;11187;49.412;20.956;2023-06-26T04:18:04;95115.00;;;15.32;100.00
22047;BME280;11187;49.412;20.956;2023-06-26T04:21:21;95116.66;;;15.33;100.00
22047;BME280;11187;49.412;20.956;2023-06-26T04:23:57;95121.78;;;15.34;100.00
22047;BME280;11187;49.412;20.956;2023-06-26T04:26:44;95118.22;;;15.37;100.00
22047;BME280;11187;49.412;20.956;2023-06-26T04:29:18;95114.66;;;15.41;100.00
22047;BME280;11187;49.412;20.956;2023-06-26T04:32:05;95111.91;;;15.45;100.00
22047;BME280;11187;49.412;20.956;2023-06-26T04:34:40;95109.28;;;15.47;100.00
22047;BME280;11187;49.412;20.956;2023-06-26T04:37:27;95117.72;;;15.51;100.00
22047;BME280;11187;49.412;20.956;2023-06-26T04:40:01;95117.66;;;15.52;100.00
22047;BME280;11187;49.412;20.956;2023-06-26T04:42:49;95106.50;;;15.52;100.00
22047;BME280;11187;49.412;20.956;2023-06-26T04:45:22;95105.59;;;15.53;100.00
22047;BME280;11187;49.412;20.956;2023-06-26T04:48:09;95108.19;;;15.53;100.00
22047;BME280;11187;49.412;20.956;2023-06-26T04:50:42;95098.59;;;15.56;100.00
22047;BME280;11187;49.412;20.956;2023-06-26T04:53:40;95091.56;;;15.60;100.00
22047;BME280;11187;49.412;20.956;2023-06-26T04:56:13;95089.66;;;15.65;100.00
22047;BME280;11187;49.412;20.956;2023-06-26T04:59:00;95095.38;;;15.73;100.00
22047;BME280;11187;49.412;20.956;2023-06-26T05:01:33;95093.22;;;15.84;100.00
22047;BME280;11187;49.412;20.956;2023-06-26T05:04:20;95091.00;;;15.97;100.00
22047;BME280;11187;49.412;20.956;2023-06-26T05:06:54;95094.78;;;16.11;100.00
22047;BME280;11187;49.412;20.956;2023-06-26T05:09:47;95097.63;;;16.25;100.00
22047;BME280;11187;49.412;20.956;2023-06-26T05:12:20;95098.03;;;16.36;100.00
22047;BME280;11187;49.412;20.956;2023-06-26T05:15:07;95104.56;;;16.45;100.00
22047;BME280;11187;49.412;20.956;2023-06-26T05:17:40;95106.06;;;16.50;100.00
22047;BME280;11187;49.412;20.956;2023-06-26T05:20:35;95100.81;;;16.52;100.00
22047;BME280;11187;49.412;20.956;2023-06-26T05:23:11;95105.06;;;16.53;100.00
22047;BME280;11187;49.412;20.956;2023-06-26T05:26:04;95109.41;;;16.53;100.00
22047;BME280;11187;49.412;20.956;2023-06-26T05:28:38;95109.34;;;16.54;100.00
22047;BME280;11187;49.412;20.956;2023-06-26T05:31:35;95101.34;;;16.60;100.00
22047;BME280;11187;49.412;20.956;2023-06-26T05:34:33;95104.34;;;16.72;100.00
22047;BME280;11187;49.412;20.956;2023-06-26T05:37:07;95112.34;;;16.86;100.00
22047;BME280;11187;49.412;20.956;2023-06-26T05:39:54;95112.59;;;17.00;100.00
22047;BME280;11187;49.412;20.956;2023-06-26T05:42:28;95109.47;;;17.13;100.00
22047;BME280;11187;49.412;20.956;2023-06-26T05:45:14;95114.03;;;17.26;100.00
22047;BME280;11187;49.412;20.956;2023-06-26T05:47:48;95100.47;;;17.40;100.00
22047;BME280;11187;49.412;20.956;2023-06-26T05:50:34;95105.91;;;17.53;100.00
22047;BME280;11187;49.412;20.956;2023-06-26T05:53:09;95107.91;;;17.67;100.00
22047;BME280;11187;49.412;20.956;2023-06-26T05:55:56;95102.06;;;17.81;100.00
22047;BME280;11187;49.412;20.956;2023-06-26T05:58:30;95099.63;;;17.97;100.00
22047;BME280;11187;49.412;20.956;2023-06-26T06:01:23;95105.03;;;18.09;100.00
22047;BME280;11187;49.412;20.956;2023-06-26T06:03:57;95094.00;;;18.23;100.00
22047;BME280;11187;49.412;20.956;2023-06-26T06:06:50;95096.03;;;18.35;100.00
22047;BME280;11187;49.412;20.956;2023-06-26T06:09:44;95096.41;;;18.45;100.00
22047;BME280;11187;49.412;20.956;2023-06-26T06:12:18;95093.41;;;18.53;100.00
22047;BME280;11187;49.412;20.956;2023-06-26T06:15:05;95097.22;;;18.63;100.00
22047;BME280;11187;49.412;20.956;2023-06-26T06:17:39;95092.50;;;18.71;100.00
22047;BME280;11187;49.412;20.956;2023-06-26T06:20:25;95091.97;;;18.82;100.00
22047;BME280;11187;49.412;20.956;2023-06-26T06:22:59;95090.50;;;18.94;100.00
22047;BME280;11187;49.412;20.956;2023-06-26T06:25:52;95084.69;;;19.06;100.00
22047;BME280;11187;49.412;20.956;2023-06-26T06:28:46;95094.34;;;19.20;100.00
22047;BME280;11187;49.412;20.956;2023-06-26T06:31:20;95082.41;;;19.33;100.00
22047;BME280;11187;49.412;20.956;2023-06-26T06:34:08;95077.28;;;19.48;100.00
22047;BME280;11187;49.412;20.956;2023-06-26T06:36:42;95087.09;;;19.58;100.00
22047;BME280;11187;49.412;20.956;2023-06-26T06:39:29;95076.19;;;19.69;100.00
22047;BME280;11187;49.412;20.956;2023-06-26T06:42:03;95083.28;;;19.81;100.00
22047;BME280;11187;49.412;20.956;2023-06-26T06:44:49;95076.31;;;19.98;100.00
22047;BME280;11187;49.412;20.956;2023-06-26T06:47:23;95080.06;;;20.08;100.00
22047;BME280;11187;49.412;20.956;2023-06-26T06:50:09;95078.22;;;20.10;100.00
22047;BME280;11187;49.412;20.956;2023-06-26T06:52:43;95082.72;;;20.22;94.09
22047;BME280;11187;49.412;20.956;2023-06-26T06:55:30;95076.25;;;20.30;97.08
22047;BME280;11187;49.412;20.956;2023-06-26T06:58:04;95080.59;;;20.29;98.64
22047;BME280;11187;49.412;20.956;2023-06-26T07:00:50;95090.19;;;20.29;99.07
22047;BME280;11187;49.412;20.956;2023-06-26T07:03:25;95079.84;;;20.27;96.31
22047;BME280;11187;49.412;20.956;2023-06-26T07:06:18;95085.31;;;20.22;93.12
22047;BME280;11187;49.412;20.956;2023-06-26T07:09:12;95081.97;;;20.20;94.69
22047;BME280;11187;49.412;20.956;2023-06-26T07:11:46;95081.13;;;20.20;91.85
22047;BME280;11187;49.412;20.956;2023-06-26T07:14:32;95080.31;;;20.19;94.71
22047;BME280;11187;49.412;20.956;2023-06-26T07:17:06;95080.88;;;20.24;94.81
22047;BME280;11187;49.412;20.956;2023-06-26T07:19:52;95084.88;;;20.30;94.29
22047;BME280;11187;49.412;20.956;2023-06-26T07:22:26;95081.28;;;20.33;94.45
22047;BME280;11187;49.412;20.956;2023-06-26T07:25:12;95082.75;;;20.37;91.96
22047;BME280;11187;49.412;20.956;2023-06-26T07:27:46;95084.25;;;20.41;93.07
22047;BME280;11187;49.412;20.956;2023-06-26T07:30:32;95080.56;;;20.45;91.28
22047;BME280;11187;49.412;20.956;2023-06-26T07:33:06;95074.81;;;20.54;91.65
22047;BME280;11187;49.412;20.956;2023-06-26T07:35:52;95086.03;;;20.71;86.48
22047;BME280;11187;49.412;20.956;2023-06-26T07:38:26;95085.81;;;20.90;88.52
22047;BME280;11187;49.412;20.956;2023-06-26T07:41:19;95086.34;;;21.09;88.89
22047;BME280;11187;49.412;20.956;2023-06-26T07:44:13;95095.28;;;21.05;86.48
22047;BME280;11187;49.412;20.956;2023-06-26T07:46:47;95083.41;;;21.01;85.98
22047;BME280;11187;49.412;20.956;2023-06-26T07:49:40;95087.09;;;20.97;86.97
22047;BME280;11187;49.412;20.956;2023-06-26T07:52:14;95089.72;;;20.97;87.15
22047;BME280;11187;49.412;20.956;2023-06-26T07:55:08;95090.63;;;20.96;85.44
22047;BME280;11187;49.412;20.956;2023-06-26T07:58:02;95091.97;;;21.03;83.78
22047;BME280;11187;49.412;20.956;2023-06-26T08:00:56;95091.75;;;21.20;85.86
22047;BME280;11187;49.412;20.956;2023-06-26T08:03:30;95095.50;;;21.31;87.49
22047;BME280;11187;49.412;20.956;2023-06-26T08:06:16;95094.75;;;21.43;81.50
22047;BME280;11187;49.412;20.956;2023-06-26T08:08:50;95091.84;;;21.62;85.74
22047;BME280;11187;49.412;20.956;2023-06-26T08:11:36;95091.09;;;21.74;82.98
22047;BME280;11187;49.412;20.956;2023-06-26T08:14:10;95096.09;;;21.77;85.41
22047;BME280;11187;49.412;20.956;2023-06-26T08:17:03;95093.91;;;21.71;83.44
22047;BME280;11187;49.412;20.956;2023-06-26T08:19:57;95097.34;;;21.72;82.22
22047;BME280;11187;49.412;20.956;2023-06-26T08:22:31;95092.47;;;21.80;83.21
22047;BME280;11187;49.412;20.956;2023-06-26T08:25:17;95096.09;;;21.77;81.36
22047;BME280;11187;49.412;20.956;2023-06-26T08:27:51;95097.22;;;21.73;79.63
22047;BME280;11187;49.412;20.956;2023-06-26T08:30:37;95099.81;;;21.87;77.31
22047;BME280;11187;49.412;20.956;2023-06-26T08:33:11;95089.56;;;22.11;83.03
22047;BME280;11187;49.412;20.956;2023-06-26T08:35:57;95095.81;;;22.09;78.64
22047;BME280;11187;49.412;20.956;2023-06-26T08:38:31;95092.47;;;22.07;80.83
22047;BME280;11187;49.412;20.956;2023-06-26T08:41:19;95083.88;;;21.92;77.26
22047;BME280;11187;49.412;20.956;2023-06-26T08:43:53;95083.22;;;21.88;82.39
22047;BME280;11187;49.412;20.956;2023-06-26T08:46:40;95094.00;;;21.97;81.44
22047;BME280;11187;49.412;20.956;2023-06-26T08:49:18;95089.78;;;22.08;81.04
22047;BME280;11187;49.412;20.956;2023-06-26T08:52:16;95091.78;;;22.18;78.69
22047;BME280;11187;49.412;20.956;2023-06-26T08:54:54;95089.16;;;22.32;74.96
22047;BME280;11187;49.412;20.956;2023-06-26T08:57:51;95089.09;;;22.46;79.10
22047;BME280;11187;49.412;20.956;2023-06-26T09:00:44;95085.44;;;22.49;79.38
22047;BME280;11187;49.412;20.956;2023-06-26T09:03:18;95090.97;;;22.44;81.62
22047;BME280;11187;49.412;20.956;2023-06-26T09:06:05;95087.84;;;22.39;76.48
22047;BME280;11187;49.412;20.956;2023-06-26T09:08:39;95090.31;;;22.41;78.24
22047;BME280;11187;49.412;20.956;2023-06-26T09:11:32;95081.84;;;22.24;79.65
22047;BME280;11187;49.412;20.956;2023-06-26T09:14:26;95082.50;;;22.14;82.52
22047;BME280;11187;49.412;20.956;2023-06-26T09:17:00;95087.38;;;22.05;80.70
22047;BME280;11187;49.412;20.956;2023-06-26T09:19:48;95084.91;;;22.17;75.08
22047;BME280;11187;49.412;20.956;2023-06-26T09:22:21;95082.81;;;22.36;76.85
22047;BME280;11187;49.412;20.956;2023-06-26T09:25:09;95084.66;;;22.34;76.16
22047;BME280;11187;49.412;20.956;2023-06-26T09:27:43;95081.44;;;22.30;78.23
22047;BME280;11187;49.412;20.956;2023-06-26T09:30:32;95084.72;;;22.20;78.42
22047;BME280;11187;49.412;20.956;2023-06-26T09:33:15;95083.22;;;22.16;79.38
22047;BME280;11187;49.412;20.956;2023-06-26T09:36:18;95084.47;;;22.10;80.32
22047;BME280;11187;49.412;20.956;2023-06-26T09:38:52;95077.47;;;22.10;80.42
22047;BME280;11187;49.412;20.956;2023-06-26T09:41:40;95077.41;;;22.12;82.06
22047;BME280;11187;49.412;20.956;2023-06-26T09:44:14;95083.63;;;22.09;77.55
22047;BME280;11187;49.412;20.956;2023-06-26T09:47:04;95074.88;;;22.10;81.46
22047;BME280;11187;49.412;20.956;2023-06-26T09:49:42;95079.78;;;22.15;79.32
22047;BME280;11187;49.412;20.956;2023-06-26T09:52:31;95080.88;;;22.25;80.31
22047;BME280;11187;49.412;20.956;2023-06-26T09:55:09;95081.22;;;22.34;79.15
22047;BME280;11187;49.412;20.956;2023-06-26T09:58:03;95079.09;;;22.53;78.34
22047;BME280;11187;49.412;20.956;2023-06-26T10:00:38;95074.84;;;22.65;77.86
22047;BME280;11187;49.412;20.956;2023-06-26T10:03:25;95078.19;;;22.80;77.76
22047;BME280;11187;49.412;20.956;2023-06-26T10:06:00;95083.31;;;22.81;75.79
22047;BME280;11187;49.412;20.956;2023-06-26T10:08:56;95076.59;;;22.77;77.87
22047;BME280;11187;49.412;20.956;2023-06-26T10:11:57;95077.13;;;22.69;77.86
22047;BME280;11187;49.412;20.956;2023-06-26T10:14:52;95070.91;;;22.85;76.71
22047;BME280;11187;49.412;20.956;2023-06-26T10:17:47;95071.72;;;22.85;77.21
22047;BME280;11187;49.412;20.956;2023-06-26T10:20:42;95071.06;;;22.82;77.00
22047;BME280;11187;49.412;20.956;2023-06-26T10:23:38;95067.94;;;22.77;78.13
22047;BME280;11187;49.412;20.956;2023-06-26T10:26:38;95061.25;;;22.72;77.62
22047;BME280;11187;49.412;20.956;2023-06-26T10:29:14;95062.00;;;22.75;78.80
22047;BME280;11187;49.412;20.956;2023-06-26T10:32:12;95056.25;;;22.69;76.04
22047;BME280;11187;49.412;20.956;2023-06-26T10:35:06;95063.34;;;22.67;76.39
22047;BME280;11187;49.412;20.956;2023-06-26T10:37:48;95057.50;;;22.64;76.82
22047;BME280;11187;49.412;20.956;2023-06-26T10:40:46;95048.53;;;22.81;77.21
22047;BME280;11187;49.412;20.956;2023-06-26T10:43:42;95058.66;;;22.85;75.28
22047;BME280;11187;49.412;20.956;2023-06-26T10:46:18;95059.59;;;22.84;75.28
22047;BME280;11187;49.412;20.956;2023-06-26T10:49:12;95061.16;;;22.74;75.92
22047;BME280;11187;49.412;20.956;2023-06-26T10:51:50;95049.34;;;22.56;75.95
22047;BME280;11187;49.412;20.956;2023-06-26T10:54:38;95046.63;;;22.44;74.57
22047;BME280;11187;49.412;20.956;2023-06-26T10:57:23;95042.75;;;22.37;79.13
22047;BME280;11187;49.412;20.956;2023-06-26T11:00:17;95049.19;;;22.31;78.28
22047;BME280;11187;49.412;20.956;2023-06-26T11:02:52;95046.81;;;22.28;72.93
22047;BME280;11187;49.412;20.956;2023-06-26T11:05:40;95037.09;;;22.30;74.02
22047;BME280;11187;49.412;20.956;2023-06-26T11:08:14;95041.06;;;22.36;76.73
22047;BME280;11187;49.412;20.956;2023-06-26T11:11:00;95047.66;;;22.42;76.19
22047;BME280;11187;49.412;20.956;2023-06-26T11:13:34;95030.84;;;22.46;76.46
22047;BME280;11187;49.412;20.956;2023-06-26T11:16:21;95036.50;;;22.52;76.82
22047;BME280;11187;49.412;20.956;2023-06-26T11:18:58;95037.34;;;22.53;74.87
22047;BME280;11187;49.412;20.956;2023-06-26T11:21:52;95040.06;;;22.51;75.62
22047;BME280;11187;49.412;20.956;2023-06-26T11:24:53;95034.44;;;22.58;76.33
22047;BME280;11187;49.412;20.956;2023-06-26T11:27:50;95034.88;;;22.64;77.00
22047;BME280;11187;49.412;20.956;2023-06-26T11:30:39;95039.97;;;22.66;78.33
22047;BME280;11187;49.412;20.956;2023-06-26T11:33:14;95040.56;;;22.57;76.47
22047;BME280;11187;49.412;20.956;2023-06-26T11:36:10;95036.19;;;22.44;76.01
22047;BME280;11187;49.412;20.956;2023-06-26T11:38:43;95037.72;;;22.34;75.22
22047;BME280;11187;49.412;20.956;2023-06-26T11:41:31;95034.16;;;22.22;76.17
22047;BME280;11187;49.412;20.956;2023-06-26T11:44:09;95035.47;;;22.15;77.08
22047;BME280;11187;49.412;20.956;2023-06-26T11:46:59;95034.06;;;22.09;79.34
22047;BME280;11187;49.412;20.956;2023-06-26T11:49:34;95043.16;;;22.04;78.35
22047;BME280;11187;49.412;20.956;2023-06-26T11:52:20;95028.00;;;21.96;79.05
22047;BME280;11187;49.412;20.956;2023-06-26T11:54:54;95032.50;;;21.94;80.72
22047;BME280;11187;49.412;20.956;2023-06-26T11:57:40;95033.53;;;21.92;78.64
22047;BME280;11187;49.412;20.956;2023-06-26T12:00:41;95031.63;;;21.94;78.19
22047;BME280;11187;49.412;20.956;2023-06-26T12:03:14;95026.31;;;21.95;78.79
22047;BME280;11187;49.412;20.956;2023-06-26T12:06:00;95029.59;;;21.99;78.76
22047;BME280;11187;49.412;20.956;2023-06-26T12:08:36;95024.38;;;21.99;80.49
22047;BME280;11187;49.412;20.956;2023-06-26T12:11:30;95031.25;;;22.00;79.65
22047;BME280;11187;49.412;20.956;2023-06-26T12:14:25;95034.06;;;21.97;80.27
22047;BME280;11187;49.412;20.956;2023-06-26T12:17:09;95026.72;;;21.89;79.07
22047;BME280;11187;49.412;20.956;2023-06-26T12:19:56;95028.88;;;21.82;80.51
22047;BME280;11187;49.412;20.956;2023-06-26T12:22:36;95029.38;;;21.75;78.28
22047;BME280;11187;49.412;20.956;2023-06-26T12:25:23;95027.06;;;21.70;78.75
22047;BME280;11187;49.412;20.956;2023-06-26T12:27:57;95027.28;;;21.67;80.81
22047;BME280;11187;49.412;20.956;2023-06-26T12:31:20;95024.97;;;21.62;80.48
22047;BME280;11187;49.412;20.956;2023-06-26T12:34:17;95026.91;;;21.59;81.16
22047;BME280;11187;49.412;20.956;2023-06-26T12:37:11;95020.13;;;21.56;80.91
22047;BME280;11187;49.412;20.956;2023-06-26T12:39:49;95018.47;;;21.55;78.14
22047;BME280;11187;49.412;20.956;2023-06-26T12:42:35;95012.53;;;21.53;81.02
22047;BME280;11187;49.412;20.956;2023-06-26T12:45:13;95012.69;;;21.50;78.25
22047;BME280;11187;49.412;20.956;2023-06-26T12:48:14;95014.56;;;21.48;77.23
22047;BME280;11187;49.412;20.956;2023-06-26T12:51:10;95010.19;;;21.48;78.91
22047;BME280;11187;49.412;20.956;2023-06-26T12:54:03;95019.97;;;21.45;78.60
22047;BME280;11187;49.412;20.956;2023-06-26T12:56:37;95002.78;;;21.42;79.28
22047;BME280;11187;49.412;20.956;2023-06-26T12:59:24;95006.38;;;21.40;78.41
22047;BME280;11187;49.412;20.956;2023-06-26T13:01:57;95007.41;;;21.37;79.23
22047;BME280;11187;49.412;20.956;2023-06-26T13:04:44;95007.56;;;21.34;79.14
22047;BME280;11187;49.412;20.956;2023-06-26T13:07:18;95004.34;;;21.31;80.87
22047;BME280;11187;49.412;20.956;2023-06-26T13:10:06;94999.31;;;21.27;80.56
22047;BME280;11187;49.412;20.956;2023-06-26T13:12:39;94993.34;;;21.25;80.81
22047;BME280;11187;49.412;20.956;2023-06-26T13:15:25;94993.56;;;21.22;81.93
22047;BME280;11187;49.412;20.956;2023-06-26T13:18:02;94984.38;;;21.17;76.38
22047;BME280;11187;49.412;20.956;2023-06-26T13:20:55;94985.38;;;21.14;76.84
22047;BME280;11187;49.412;20.956;2023-06-26T13:23:29;94994.06;;;21.15;78.34
22047;BME280;11187;49.412;20.956;2023-06-26T13:26:15;94985.50;;;21.13;80.03
22047;BME280;11187;49.412;20.956;2023-06-26T13:29:02;94988.19;;;21.11;80.65
22047;BME280;11187;49.412;20.956;2023-06-26T13:31:56;94983.06;;;21.10;79.33
22047;BME280;11187;49.412;20.956;2023-06-26T13:34:50;94984.94;;;21.08;79.65
22047;BME280;11187;49.412;20.956;2023-06-26T13:37:44;94984.94;;;21.08;80.49
22047;BME280;11187;49.412;20.956;2023-06-26T13:40:20;94976.41;;;21.05;80.53
22047;BME280;11187;49.412;20.956;2023-06-26T13:43:06;94973.78;;;21.05;80.77
22047;BME280;11187;49.412;20.956;2023-06-26T13:45:40;94971.38;;;21.02;80.66
22047;BME280;11187;49.412;20.956;2023-06-26T13:48:27;94973.22;;;21.00;81.27
22047;BME280;11187;49.412;20.956;2023-06-26T13:51:01;94967.31;;;20.98;79.25
22047;BME280;11187;49.412;20.956;2023-06-26T13:53:54;94963.09;;;20.96;80.12
22047;BME280;11187;49.412;20.956;2023-06-26T13:56:48;94954.53;;;20.94;78.40
22047;BME280;11187;49.412;20.956;2023-06-26T13:59:22;94951.03;;;20.95;78.48
22047;BME280;11187;49.412;20.956;2023-06-26T14:02:08;94951.78;;;20.97;78.73
22047;BME280;11187;49.412;20.956;2023-06-26T14:04:42;94952.59;;;20.97;79.90
22047;BME280;11187;49.412;20.956;2023-06-26T14:07:35;94949.25;;;20.95;78.11
22047;BME280;11187;49.412;20.956;2023-06-26T14:10:30;94954.53;;;21.08;79.87
22047;BME280;11187;49.412;20.956;2023-06-26T14:13:03;94949.22;;;21.10;80.13
22047;BME280;11187;49.412;20.956;2023-06-26T14:15:54;94943.47;;;21.19;78.89
22047;BME280;11187;49.412;20.956;2023-06-26T14:18:29;94943.34;;;21.20;80.58